METARs

lähialueen METAR Raportit

 

EFUT - Utti, Kouvola, FINLAND
Etäisyys asemasta: KA 0,7mi, 1km
Päivitetty: 13-12-2018 22:50
Täysin pilvistä
Täysin pilvistä
 Tuulen suunta IKO
Tuuli: IKO 7 mph , 11 km/h
Lämpötila: 23°F , -5°C
Hyytävyys: 15°F , -9°C
Kastepiste: 21°F , -6°C
Kosteus: 93%
Ilmanpaine: 30.53 inHg , 1034 hPa
Pilvisyys: Täysin pilvistä
Näkyvyys: 6 miles , 10 km
Pilveily: Täysin pilvistä 600 ft
2018/12/13 20:50 EFUT 132050Z AUTO 07006KT 040V100 9999 OVC006 M05/M06 Q1034
EFLP - Lappeenranta, FINLAND
Etäisyys asemasta: I 42mi, 67km
Päivitetty: 13-12-2018 22:50
Täysin pilvistä
Täysin pilvistä
 Tuulen suunta KO
Tuuli: KO 7 mph , 11 km/h
Lämpötila: 23°F , -5°C
Hyytävyys: 15°F , -9°C
Kastepiste: 19°F , -7°C
Kosteus: 86%
Ilmanpaine: 30.53 inHg , 1034 hPa
Pilvisyys: Täysin pilvistä
Näkyvyys: 6 miles , 10 km
Pilveily: Täysin pilvistä 500 ft
2018/12/13 20:50 EFLP 132050Z AUTO 04006KT 9999 OVC005 M05/M07 Q1034

Metar display script from Saratoga-Weather.org

Page generated in 0.47 seconds.